Time;durP1;ratioP1;P1;durP2;ratioP2;P2;SDS_P1;SDS_P2;PMS_P1;PMS_P2;Temp;Humidity;BMP_temperature;BMP_pressure;BME280_temperature;BME280_humidity;BME280_pressure;Samples;Min_cycle;Max_cycle;Signal;HPM_P1;HPM_P2
2021/07/15 00:04:51;;;;;;;4.55;2.38;;;;;;;22.03;68.73;100304.80;256468;1093;114694;-71
2021/07/15 00:09:54;;;;;;;6.60;3.00;;;;;;;21.90;68.93;100303.13;256023;1093;114674;-75
2021/07/15 00:14:58;;;;;;;8.75;3.65;;;;;;;21.99;69.90;100287.47;256240;1093;114839;-71
2021/07/15 00:20:01;;;;;;;6.13;2.48;;;;;;;22.09;69.93;100281.53;256292;1093;114490;-72
2021/07/15 00:25:07;;;;;;;2.93;2.10;;;;;;;22.12;69.21;100271.13;256098;1093;114893;-72
2021/07/15 00:30:11;;;;;;;5.25;2.68;;;;;;;22.15;69.26;100251.83;255981;1093;114483;-71
2021/07/15 00:35:14;;;;;;;3.55;2.25;;;;;;;22.09;69.33;100215.06;255905;1092;114718;-72
2021/07/15 00:40:17;;;;;;;4.00;2.55;;;;;;;22.09;69.08;100212.37;255627;1093;114758;-70
2021/07/15 00:45:20;;;;;;;3.30;2.30;;;;;;;22.09;68.92;100214.25;256178;1093;114615;-71
2021/07/15 00:50:23;;;;;;;3.60;1.88;;;;;;;22.09;68.72;100201.61;255783;1093;114441;-71
2021/07/15 00:55:52;;;;;;;6.40;2.43;;;;;;;22.05;68.44;100200.44;255867;1093;114675;-72
2021/07/15 01:00:54;;;;;;;4.08;1.93;;;;;;;21.97;68.70;100198.09;256732;1093;114735;-76
2021/07/15 01:05:57;;;;;;;4.98;2.05;;;;;;;21.94;68.64;100182.41;256192;1093;114672;-77
2021/07/15 01:11:21;;;;;;;2.87;2.50;;;;;;;21.98;68.86;100151.28;256646;1093;115210;-76
2021/07/15 01:16:26;;;;;;;2.85;2.00;;;;;;;21.97;68.95;100133.50;256321;1093;114685;-72
2021/07/15 01:21:52;;;;;;;2.83;2.15;;;;;;;21.98;68.07;100153.97;255827;1093;114505;-76
2021/07/15 01:27:10;;;;;;;3.15;1.93;;;;;;;21.99;68.43;100126.81;256336;1093;114671;-72
2021/07/15 01:32:14;;;;;;;3.53;1.90;;;;;;;21.86;68.51;100120.86;256329;1093;115089;-74
2021/07/15 01:37:18;;;;;;;4.47;1.87;;;;;;;21.80;68.32;100132.55;256754;1092;115044;-72
2021/07/15 01:42:21;;;;;;;3.07;1.63;;;;;;;21.73;68.55;100132.68;256164;1093;115110;-72
2021/07/15 01:47:26;;;;;;;4.33;1.63;;;;;;;21.71;69.31;100119.44;255797;1092;114979;-75
2021/07/15 01:52:29;;;;;;;3.25;1.70;;;;;;;21.70;68.65;100144.71;258515;1092;114507;-75
2021/07/15 01:57:32;;;;;;;3.03;1.58;;;;;;;21.67;68.73;100182.02;256605;1093;114909;-75
2021/07/15 02:02:36;;;;;;;5.65;1.90;;;;;;;21.60;69.19;100190.17;256195;1093;114674;-72
2021/07/15 02:07:41;;;;;;;2.30;1.60;;;;;;;21.61;69.35;100217.88;256148;1093;115135;-71
2021/07/15 02:12:44;;;;;;;4.45;2.40;;;;;;;20.76;71.64;100472.08;255722;1092;114988;-71
2021/07/15 02:17:47;;;;;;;10.27;3.00;;;;;;;21.02;69.46;100448.71;255665;1093;114897;-72
2021/07/15 02:22:51;;;;;;;7.55;3.83;;;;;;;21.27;67.41;100473.72;255996;1093;114908;-75
2021/07/15 02:27:54;;;;;;;8.78;3.28;;;;;;;;;;256080;1093;114754;-75
2021/07/15 02:32:59;;;;;;;12.00;3.80;;;;;;;19.92;77.56;100517.91;256477;1093;103405;-74
2021/07/15 02:38:05;;;;;;;10.90;4.40;;;;;;;19.73;79.32;100514.24;256234;1093;115112;-72
2021/07/15 02:43:07;;;;;;;11.43;3.73;;;;;;;20.21;80.11;100479.83;256458;1093;114762;-76
2021/07/15 02:48:12;;;;;;;10.05;3.43;;;;;;;20.26;79.75;100355.72;256874;1093;114733;-76
2021/07/15 02:53:14;;;;;;;11.65;3.70;;;;;;;20.41;78.41;100280.24;257008;1092;114847;-72
2021/07/15 02:58:23;;;;;;;12.78;4.23;;;;;;;20.28;77.94;100319.58;255837;1093;114789;-72
2021/07/15 03:03:52;;;;;;;11.78;3.08;;;;;;;20.05;79.86;100279.91;258347;1093;114881;-76
2021/07/15 03:09:14;;;;;;;14.45;4.20;;;;;;;20.07;79.84;100274.31;257027;1093;114645;-77
2021/07/15 03:14:18;;;;;;;9.30;3.48;;;;;;;20.16;80.55;100267.63;256559;1093;114612;-73
2021/07/15 03:19:20;;;;;;;8.60;3.15;;;;;;;20.27;80.04;100266.92;256205;1093;114521;-71
2021/07/15 03:24:25;;;;;;;9.20;3.50;;;;;;;20.22;81.05;100261.40;255758;1093;114683;-76
2021/07/15 03:29:28;;;;;;;13.93;4.23;;;;;;;20.13;81.17;100289.56;256670;1093;114567;-74
2021/07/15 03:34:34;;;;;;;11.30;3.88;;;;;;;20.22;80.74;100292.78;256000;1094;115175;-71
2021/07/15 03:39:38;;;;;;;9.38;4.40;;;;;;;20.23;81.28;100295.23;255747;1094;115214;-72
2021/07/15 03:44:41;;;;;;;8.35;3.63;;;;;;;20.19;81.44;100310.13;255841;1095;115151;-71
2021/07/15 03:49:47;;;;;;;5.63;3.30;;;;;;;20.09;81.56;100363.48;255708;1095;114610;-71
2021/07/15 03:54:51;;;;;;;13.30;4.00;;;;;;;20.02;80.50;100370.73;256276;1095;114425;-76
2021/07/15 03:59:55;;;;;;;9.05;4.93;;;;;;;20.06;79.77;100406.83;256290;1095;114813;-72
2021/07/15 04:04:59;;;;;;;13.40;5.83;;;;;;;19.96;79.62;100457.43;256211;1096;114696;-71
2021/07/15 04:10:03;;;;;;;11.43;4.05;;;;;;;19.62;80.96;100459.42;256113;1096;115299;-72
2021/07/15 04:15:13;;;;;;;12.05;4.25;;;;;;;19.82;81.24;100422.63;255895;1094;115134;-71
2021/07/15 04:20:19;;;;;;;12.50;4.13;;;;;;;20.05;81.30;100383.73;255704;1094;114907;-71
2021/07/15 04:25:23;;;;;;;11.25;4.55;;;;;;;20.19;80.84;100363.80;255888;1093;116015;-75
2021/07/15 04:30:27;;;;;;;13.00;4.40;;;;;;;20.25;80.62;100333.43;256062;1093;115151;-72
2021/07/15 04:35:33;;;;;;;9.00;3.48;;;;;;;20.20;80.36;100279.56;255795;1093;115869;-72
2021/07/15 04:40:35;;;;;;;14.05;4.13;;;;;;;20.21;80.82;100243.66;255797;1093;114783;-71
2021/07/15 04:45:40;;;;;;;11.43;3.53;;;;;;;20.21;81.02;100232.11;258593;1093;114896;-71
2021/07/15 04:50:42;;;;;;;9.90;4.00;;;;;;;20.10;82.04;100247.05;259968;1093;114555;-77
2021/07/15 04:55:47;;;;;;;8.73;3.67;;;;;;;20.03;81.37;100257.02;256638;1096;114667;-72
2021/07/15 05:00:50;;;;;;;10.28;3.80;;;;;;;20.10;80.82;100222.91;256675;1093;114716;-77
2021/07/15 05:05:53;;;;;;;10.88;4.00;;;;;;;20.33;80.54;100191.95;256907;1093;114846;-73
2021/07/15 05:10:56;;;;;;;9.98;4.55;;;;;;;20.38;81.57;100158.02;255936;1093;114833;-73
2021/07/15 05:15:59;;;;;;;13.03;4.45;;;;;;;20.51;81.14;100159.76;257397;1095;114947;-77
2021/07/15 05:21:02;;;;;;;11.05;4.03;;;;;;;20.55;81.09;100180.56;257014;1096;114718;-76
2021/07/15 05:26:04;;;;;;;7.50;3.83;;;;;;;20.51;81.47;100189.29;257266;1093;115048;-77
2021/07/15 05:31:07;;;;;;;11.90;3.63;;;;;;;20.69;81.62;100189.30;257843;1096;114900;-73
2021/07/15 05:36:10;;;;;;;10.30;4.43;;;;;;;20.84;81.50;100178.18;257453;1094;115085;-76
2021/07/15 05:41:12;;;;;;;10.88;4.45;;;;;;;20.93;81.71;100187.56;257046;1094;115782;-74
2021/07/15 05:46:15;;;;;;;13.45;4.88;;;;;;;21.10;81.62;100182.38;256594;1095;114915;-76
2021/07/15 05:51:17;;;;;;;8.00;4.48;;;;;;;21.28;82.32;100168.08;256653;1092;114734;-75
2021/07/15 05:56:20;;;;;;;12.60;5.18;;;;;;;21.42;82.14;100152.63;256416;1095;114817;-74
2021/07/15 06:01:22;;;;;;;9.50;5.80;;;;;;;21.59;82.31;100126.69;257003;1093;114945;-74
2021/07/15 06:06:25;;;;;;;11.50;4.45;;;;;;;21.65;81.36;100115.02;256707;1093;114414;-73
2021/07/15 06:11:27;;;;;;;9.60;4.70;;;;;;;21.63;81.70;100106.34;256656;1093;114827;-73
2021/07/15 06:16:29;;;;;;;9.95;4.08;;;;;;;21.71;81.79;100089.86;256769;1096;114811;-77
2021/07/15 06:21:32;;;;;;;8.98;4.20;;;;;;;21.85;81.42;100093.14;257132;1093;114616;-74
2021/07/15 06:26:34;;;;;;;9.50;3.90;;;;;;;21.97;81.33;100087.76;256864;1092;114404;-73
2021/07/15 06:31:38;;;;;;;10.25;4.55;;;;;;;22.07;79.19;100093.34;256891;1093;115025;-75
2021/07/15 06:36:43;;;;;;;8.60;4.40;;;;;;;22.09;79.49;100071.59;256739;1095;114682;-73
2021/07/15 06:41:45;;;;;;;8.03;3.95;;;;;;;22.13;79.58;100057.45;256895;1093;114562;-74
2021/07/15 06:46:47;;;;;;;10.33;4.15;;;;;;;22.34;78.97;100057.87;256828;1093;115018;-72
2021/07/15 06:51:50;;;;;;;10.10;4.80;;;;;;;22.54;78.01;100069.03;255699;1094;270988;-74
2021/07/15 06:56:52;;;;;;;8.33;3.88;;;;;;;22.72;76.26;100085.02;256710;1096;114614;-73
2021/07/15 07:01:54;;;;;;;8.45;4.15;;;;;;;22.77;74.94;100075.40;256655;1096;114577;-74
2021/07/15 07:06:56;;;;;;;9.20;3.88;;;;;;;22.95;73.99;100112.97;256340;1093;114861;-73
2021/07/15 07:11:58;;;;;;;8.10;3.67;;;;;;;23.31;71.15;100127.08;256754;1092;115060;-73
2021/07/15 07:17:01;;;;;;;8.25;4.25;;;;;;;23.49;72.37;100134.95;256642;1095;114857;-73
2021/07/15 07:22:06;;;;;;;6.80;3.13;;;;;;;23.71;69.17;100116.98;256632;1092;115165;-74
2021/07/15 07:27:08;;;;;;;8.68;4.00;;;;;;;23.61;70.95;100100.62;256688;1093;114476;-74
2021/07/15 07:32:11;;;;;;;7.70;4.10;;;;;;;23.61;70.19;100092.52;256710;1093;114569;-75
2021/07/15 07:37:13;;;;;;;7.68;3.83;;;;;;;23.66;70.26;100097.20;256662;1096;114428;-74
2021/07/15 07:42:15;;;;;;;6.25;3.80;;;;;;;23.74;70.17;100099.48;256721;1093;114462;-73
2021/07/15 07:47:17;;;;;;;7.55;3.85;;;;;;;23.90;68.59;100103.23;256782;1093;114824;-74
2021/07/15 07:52:20;;;;;;;7.38;3.38;;;;;;;24.06;67.54;100101.56;256673;1093;114475;-73
2021/07/15 07:57:22;;;;;;;11.23;4.18;;;;;;;24.17;67.83;100109.55;256541;1095;114989;-73
2021/07/15 08:02:25;;;;;;;12.28;10.23;;;;;;;24.34;66.97;100124.88;256750;1093;114811;-73
2021/07/15 08:07:27;;;;;;;7.83;3.93;;;;;;;24.45;64.16;100153.70;256977;1093;114948;-74
2021/07/15 08:12:30;;;;;;;6.68;4.28;;;;;;;24.57;65.69;100177.89;256815;1093;114513;-75
2021/07/15 08:17:32;;;;;;;5.83;3.45;;;;;;;24.48;65.30;100207.23;256659;1096;114550;-74
2021/07/15 08:22:34;;;;;;;8.98;4.10;;;;;;;24.36;64.25;100241.62;256859;1095;115030;-75
2021/07/15 08:27:36;;;;;;;6.95;3.45;;;;;;;24.22;67.25;100262.73;256857;1092;114465;-78
2021/07/15 08:32:39;;;;;;;7.63;3.53;;;;;;;24.26;68.49;100271.16;256824;1092;114543;-77
2021/07/15 08:37:42;;;;;;;6.28;4.10;;;;;;;24.32;69.56;100294.50;259033;1096;114981;-75
2021/07/15 08:42:45;;;;;;;8.28;4.65;;;;;;;24.55;68.28;100320.55;257065;1096;114480;-73
2021/07/15 08:47:50;;;;;;;13.28;3.98;;;;;;;24.66;67.66;100317.76;256759;1093;114695;-75
2021/07/15 08:52:53;;;;;;;7.40;4.45;;;;;;;24.80;67.99;100314.70;256653;1093;115324;-73
2021/07/15 08:57:55;;;;;;;6.93;4.10;;;;;;;24.85;67.70;100318.30;256851;1096;115401;-74
2021/07/15 09:02:58;;;;;;;8.35;4.43;;;;;;;24.98;67.72;100300.89;256726;1095;115380;-76
2021/07/15 09:08:01;;;;;;;8.60;4.23;;;;;;;25.05;66.33;100301.53;256932;1093;114971;-78
2021/07/15 09:13:03;;;;;;;7.83;5.65;;;;;;;25.10;65.41;100301.63;256915;1092;114492;-74
2021/07/15 09:18:13;;;;;;;9.98;4.50;;;;;;;25.18;64.80;100298.47;256915;1096;114978;-77
2021/07/15 09:23:16;;;;;;;10.23;4.08;;;;;;;25.42;64.72;100281.97;257185;1096;114448;-74
2021/07/15 09:28:26;;;;;;;7.10;3.93;;;;;;;25.45;64.27;100281.47;256910;1093;114704;-78
2021/07/15 09:33:36;;;;;;;9.28;4.80;;;;;;;25.62;62.61;100287.59;256898;1093;114999;-79
2021/07/15 09:38:40;;;;;;;8.48;6.50;;;;;;;25.81;62.30;100304.33;257060;1096;114472;-75
2021/07/15 09:43:43;;;;;;;8.53;5.23;;;;;;;25.88;60.22;100328.50;256597;1096;114507;-76
2021/07/15 09:49:03;;;;;;;8.60;5.03;;;;;;;25.63;62.24;100340.68;256806;1092;114445;-74
2021/07/15 09:54:06;;;;;;;7.80;4.55;;;;;;;25.48;61.06;100351.33;257087;1093;114438;-75
2021/07/15 09:59:09;;;;;;;;;;;;;;;25.55;59.62;100346.55;256766;1095;115193;-74
2021/07/15 10:04:11;;;;;;;7.38;4.73;;;;;;;25.69;58.99;100362.38;257043;1096;103078;-73
2021/07/15 10:09:21;;;;;;;6.08;4.33;;;;;;;25.61;59.02;100372.58;256923;1093;114778;-73
2021/07/15 10:14:38;;;;;;;8.05;4.70;;;;;;;25.45;57.56;100416.77;256896;1092;114556;-74
2021/07/15 10:19:40;;;;;;;5.63;4.93;;;;;;;24.73;59.61;100414.90;256591;1093;114474;-77
2021/07/15 10:24:43;;;;;;;6.63;4.80;;;;;;;24.49;62.22;100403.40;256778;1093;114557;-75
2021/07/15 10:29:46;;;;;;;5.43;4.03;;;;;;;24.26;60.43;100390.00;256743;1093;114871;-74
2021/07/15 10:34:52;;;;;;;5.18;4.23;;;;;;;24.34;61.67;100359.88;256792;1093;114688;-75
2021/07/15 10:39:55;;;;;;;7.88;4.75;;;;;;;24.33;61.88;100355.55;256889;1092;114588;-76
2021/07/15 10:44:57;;;;;;;6.28;3.63;;;;;;;23.94;62.33;100353.53;256692;1093;114366;-75
2021/07/15 10:50:00;;;;;;;7.23;4.25;;;;;;;23.79;64.41;100371.32;257331;1093;114724;-73
2021/07/15 10:55:05;;;;;;;6.18;4.05;;;;;;;23.50;65.09;100373.97;260275;1095;114514;-75
2021/07/15 11:00:28;;;;;;;7.75;4.58;;;;;;;23.36;66.09;100345.62;256947;1092;114535;-74
2021/07/15 11:05:30;;;;;;;7.50;4.23;;;;;;;23.11;67.53;100311.68;257038;1092;114787;-77
2021/07/15 11:10:34;;;;;;;9.88;4.70;;;;;;;23.08;68.42;100312.15;257120;1092;114668;-77
2021/07/15 11:15:45;;;;;;;8.03;5.20;;;;;;;23.17;68.06;100316.14;256924;1092;114619;-74
2021/07/15 11:20:47;;;;;;;6.70;4.97;;;;;;;23.24;69.16;100327.58;256648;1096;114437;-76
2021/07/15 11:25:50;;;;;;;7.00;4.48;;;;;;;23.28;68.61;100305.54;256734;1095;114898;-75
2021/07/15 11:30:57;;;;;;;10.93;5.90;;;;;;;23.17;68.13;100324.22;256677;1096;114425;-74
2021/07/15 11:36:08;;;;;;;10.90;4.93;;;;;;;23.05;68.38;100307.22;256793;1093;114813;-74
2021/07/15 11:41:14;;;;;;;14.63;7.80;;;;;;;23.06;68.70;100287.32;256680;1093;114804;-74
2021/07/15 11:46:19;;;;;;;10.13;5.75;;;;;;;23.12;68.93;100272.88;256812;1093;114646;-74
2021/07/15 11:51:33;;;;;;;9.23;5.28;;;;;;;23.08;70.87;100273.59;256897;1093;114562;-74
2021/07/15 11:56:35;;;;;;;11.05;4.83;;;;;;;23.21;69.87;100284.13;256891;1093;114529;-74
2021/07/15 12:01:38;;;;;;;11.30;5.00;;;;;;;23.25;69.80;100279.89;256924;1095;114747;-77
2021/07/15 12:06:45;;;;;;;11.08;5.55;;;;;;;23.21;71.29;100290.33;257236;1093;114587;-77
2021/07/15 12:11:52;;;;;;;11.78;5.13;;;;;;;23.32;68.06;100291.33;257674;1093;114721;-77
2021/07/15 12:16:54;;;;;;;12.45;5.15;;;;;;;23.36;68.59;100280.89;257376;1093;114562;-78
2021/07/15 12:22:00;;;;;;;7.80;4.45;;;;;;;23.34;69.60;100285.72;257026;1092;114779;-75
2021/07/15 12:27:02;;;;;;;10.20;5.78;;;;;;;23.40;68.21;100277.47;256834;1093;114392;-74
2021/07/15 12:32:04;;;;;;;11.05;5.23;;;;;;;23.62;68.36;100253.34;257574;1092;114797;-73
2021/07/15 12:37:12;;;;;;;8.90;5.45;;;;;;;24.00;67.58;100243.77;256822;1093;114538;-76
2021/07/15 12:42:18;;;;;;;7.10;5.10;;;;;;;24.49;65.89;100221.56;256611;1093;114443;-77
2021/07/15 12:47:21;;;;;;;13.98;5.55;;;;;;;24.76;66.66;100221.66;256736;1095;114539;-74
2021/07/15 12:52:23;;;;;;;13.13;5.45;;;;;;;24.78;64.55;100211.42;256691;1091;114678;-75
2021/07/15 12:57:26;;;;;;;8.23;4.77;;;;;;;24.85;62.69;100209.35;256705;1093;114699;-76
2021/07/15 13:02:33;;;;;;;8.78;4.75;;;;;;;24.98;62.63;100173.81;256715;1093;114904;-73
2021/07/15 13:07:36;;;;;;;7.28;4.38;;;;;;;25.24;62.61;100147.05;256726;1093;114692;-74
2021/07/15 13:18:12;;;;;;;7.05;4.43;;;;;;;25.30;61.74;100160.38;256887;1092;114430;-74
2021/07/15 13:23:15;;;;;;;7.00;3.78;;;;;;;25.32;58.03;100154.73;256811;1092;114404;-75
2021/07/15 13:28:20;;;;;;;6.93;4.83;;;;;;;25.56;58.31;100157.91;256872;1092;114452;-78
2021/07/15 13:33:24;;;;;;;7.33;3.80;;;;;;;25.77;58.18;100153.47;256636;1092;114990;-75
2021/07/15 13:38:28;;;;;;;10.75;5.10;;;;;;;25.70;60.69;100142.03;257123;1093;114956;-74
2021/07/15 13:43:31;;;;;;;8.27;4.30;;;;;;;25.81;59.46;100149.20;256725;1093;115249;-73
2021/07/15 13:48:41;;;;;;;7.48;4.98;;;;;;;25.89;57.45;100159.54;256729;1092;114446;-75
2021/07/15 13:53:43;;;;;;;9.50;5.13;;;;;;;26.10;58.10;100157.80;256692;1093;114623;-74
2021/07/15 13:58:46;;;;;;;11.85;5.55;;;;;;;26.00;58.55;100157.73;256830;1093;114890;-74
2021/07/15 14:03:51;;;;;;;12.60;5.53;;;;;;;26.00;57.98;100163.95;256812;1093;114640;-76
2021/07/15 14:09:00;;;;;;;9.93;4.67;;;;;;;25.71;56.88;100154.52;256859;1093;215035;-73
2021/07/15 14:14:03;;;;;;;6.43;4.15;;;;;;;25.59;60.28;100163.63;256866;1093;114654;-74
2021/07/15 14:19:07;;;;;;;8.93;4.80;;;;;;;25.88;56.87;100168.75;256751;1092;115053;-79
2021/07/15 14:24:09;;;;;;;8.33;3.98;;;;;;;26.00;57.45;100190.22;256709;1092;114918;-73
2021/07/15 14:29:11;;;;;;;9.15;4.38;;;;;;;25.98;59.15;100201.33;256659;1096;114936;-77
2021/07/15 14:34:13;;;;;;;5.63;4.33;;;;;;;25.91;60.72;100235.93;256982;1093;114506;-77
2021/07/15 14:39:16;;;;;;;8.70;4.90;;;;;;;25.99;58.46;100262.53;256635;1093;114713;-73
2021/07/15 14:44:18;;;;;;;11.20;4.60;;;;;;;25.46;59.91;100282.28;256751;1093;115184;-74
2021/07/15 14:49:20;;;;;;;5.70;4.43;;;;;;;25.81;56.69;100279.16;256686;1095;114749;-75
2021/07/15 14:54:23;;;;;;;6.40;4.83;;;;;;;25.94;56.82;100295.00;256714;1092;114431;-74
2021/07/15 14:59:25;;;;;;;7.05;4.75;;;;;;;25.44;58.61;100295.27;256745;1092;114434;-74
2021/07/15 15:04:28;;;;;;;6.03;5.15;;;;;;;25.25;60.50;100300.19;256750;1093;114870;-76
2021/07/15 15:09:30;;;;;;;6.00;5.05;;;;;;;25.09;59.63;100291.88;256961;1093;114461;-74
2021/07/15 15:14:33;;;;;;;10.17;4.97;;;;;;;24.98;60.62;100281.97;256680;1093;114867;-73
2021/07/15 15:19:35;;;;;;;7.40;5.30;;;;;;;24.92;61.63;100288.36;256738;1093;115344;-77
2021/07/15 15:24:38;;;;;;;6.75;5.40;;;;;;;24.98;61.30;100290.08;256739;1093;115173;-75
2021/07/15 15:29:42;;;;;;;7.00;5.60;;;;;;;25.04;61.79;100291.77;256836;1092;114499;-77
2021/07/15 15:34:45;;;;;;;9.15;7.28;;;;;;;25.32;62.16;100289.99;258415;1093;114616;-74
2021/07/15 15:39:47;;;;;;;5.63;5.05;;;;;;;25.37;61.21;100277.33;258593;1092;114843;-74
2021/07/15 15:44:49;;;;;;;7.03;5.25;;;;;;;25.62;59.16;100271.36;256977;1096;114427;-75
2021/07/15 15:49:51;;;;;;;8.28;5.28;;;;;;;25.48;58.89;100270.14;256577;1092;114833;-73
2021/07/15 15:54:54;;;;;;;6.05;4.85;;;;;;;25.22;60.20;100266.33;256833;1093;114376;-75
2021/07/15 15:59:57;;;;;;;6.25;5.03;;;;;;;25.28;60.88;100265.33;256727;1095;114613;-73
2021/07/15 16:05:03;;;;;;;6.65;4.73;;;;;;;25.55;61.64;100257.23;257630;1093;115121;-76
2021/07/15 16:10:10;;;;;;;8.13;5.53;;;;;;;25.55;61.58;100259.94;260050;1095;114345;-74
2021/07/15 16:15:13;;;;;;;7.37;5.93;;;;;;;25.44;61.29;100235.73;257500;1095;115349;-73
2021/07/15 16:20:26;;;;;;;7.38;5.35;;;;;;;25.32;61.76;100233.18;256552;1095;114636;-72
2021/07/15 16:25:32;;;;;;;7.03;5.80;;;;;;;25.22;61.82;100224.94;258997;1095;114811;-72
2021/07/15 16:30:35;;;;;;;8.20;5.68;;;;;;;25.20;62.67;100222.50;257098;1096;114536;-73
2021/07/15 16:35:37;;;;;;;7.43;5.85;;;;;;;25.16;63.01;100222.19;256676;1095;114811;-75
2021/07/15 16:40:39;;;;;;;6.90;6.30;;;;;;;25.13;62.30;100197.53;256899;1096;114425;-73
2021/07/15 16:45:42;;;;;;;7.60;5.45;;;;;;;25.06;62.56;100192.28;256797;1095;114459;-74
2021/07/15 16:50:44;;;;;;;7.73;5.88;;;;;;;25.14;62.93;100178.34;256749;1096;114618;-74
2021/07/15 16:55:47;;;;;;;7.80;5.10;;;;;;;25.22;62.00;100170.84;256553;1096;115112;-73
2021/07/15 17:00:49;;;;;;;6.53;5.33;;;;;;;25.22;61.80;100173.55;256787;1096;114650;-72
2021/07/15 17:05:52;;;;;;;8.18;5.85;;;;;;;25.16;62.00;100164.58;256466;1095;114894;-72
2021/07/15 17:10:54;;;;;;;8.08;5.35;;;;;;;25.07;62.45;100172.27;256600;1095;114914;-74
2021/07/15 17:16:05;;;;;;;7.65;5.38;;;;;;;25.02;63.00;100174.94;256713;1094;114483;-78
2021/07/15 17:21:07;;;;;;;7.18;4.88;;;;;;;24.88;63.59;100179.09;257233;1093;114920;-74
2021/07/15 17:26:10;;;;;;;9.03;5.27;;;;;;;24.83;64.85;100182.55;256046;1093;114807;-72
2021/07/15 17:31:13;;;;;;;8.17;5.37;;;;;;;24.83;65.48;100192.55;256784;1093;114487;-74
2021/07/15 17:36:16;;;;;;;7.93;5.45;;;;;;;24.87;65.37;100182.88;256002;1093;114748;-74
2021/07/15 17:41:20;;;;;;;7.25;5.75;;;;;;;24.88;65.56;100189.91;259262;1093;114490;-77
2021/07/15 17:46:22;;;;;;;8.67;5.57;;;;;;;24.83;65.70;100203.37;256290;1093;114643;-72
2021/07/15 17:51:24;;;;;;;6.68;5.63;;;;;;;24.79;67.13;100215.75;256055;1093;114677;-70
2021/07/15 17:56:26;;;;;;;9.05;6.18;;;;;;;24.70;67.92;100220.78;255643;1093;114625;-71
2021/07/15 18:01:29;;;;;;;10.35;6.40;;;;;;;24.69;68.20;100230.78;255698;1092;115025;-72
2021/07/15 18:06:32;;;;;;;8.00;5.78;;;;;;;24.73;68.46;100241.91;255682;1093;115546;-71
2021/07/15 18:11:35;;;;;;;6.63;5.93;;;;;;;24.72;68.22;100242.14;255628;1093;114845;-73
2021/07/15 18:16:37;;;;;;;6.90;6.10;;;;;;;24.67;68.62;100230.20;256494;1093;115661;-72
2021/07/15 18:21:39;;;;;;;8.95;6.23;;;;;;;24.58;68.44;100218.20;256142;1093;115796;-76
2021/07/15 18:26:43;;;;;;;10.88;6.68;;;;;;;24.60;68.52;100223.34;256571;1093;114748;-73
2021/07/15 18:31:45;;;;;;;11.35;6.85;;;;;;;24.61;69.05;100227.67;256355;1093;114819;-73
2021/07/15 18:36:49;;;;;;;9.78;6.38;;;;;;;24.56;69.00;100214.91;256633;1093;114898;-71
2021/07/15 18:41:52;;;;;;;8.20;6.90;;;;;;;24.48;68.68;100207.23;256229;1093;115847;-73
2021/07/15 18:46:55;;;;;;;7.38;6.60;;;;;;;24.38;68.71;100188.14;256152;1093;114625;-71
2021/07/15 18:51:58;;;;;;;10.20;7.23;;;;;;;24.33;68.55;100198.89;256398;1093;115125;-71
2021/07/15 18:57:02;;;;;;;12.00;6.97;;;;;;;24.35;68.58;100207.58;256874;1095;115394;-71
2021/07/15 19:02:05;;;;;;;10.43;8.68;;;;;;;24.39;68.48;100203.34;256391;1093;114994;-73
2021/07/15 19:07:07;;;;;;;8.93;7.93;;;;;;;24.34;68.51;100206.77;255732;1093;114808;-71
2021/07/15 19:12:10;;;;;;;8.53;6.98;;;;;;;24.32;68.82;100208.06;255815;1093;115075;-72
2021/07/15 19:17:13;;;;;;;10.38;7.03;;;;;;;24.29;68.98;100216.66;255832;1093;114999;-71
2021/07/15 19:22:16;;;;;;;10.85;8.28;;;;;;;24.25;69.24;100218.22;255674;1092;114806;-72
2021/07/15 19:27:18;;;;;;;10.60;8.53;;;;;;;24.23;69.33;100225.77;255621;1093;115065;-71
2021/07/15 19:32:20;;;;;;;9.20;7.95;;;;;;;24.07;70.20;100230.92;255717;1093;115262;-75
2021/07/15 19:37:22;;;;;;;8.65;7.75;;;;;;;23.90;71.02;100230.09;255795;1096;114734;-71
2021/07/15 19:42:25;;;;;;;9.10;7.50;;;;;;;23.70;71.79;100220.59;255498;1094;114993;-72
2021/07/15 19:47:27;;;;;;;11.25;8.15;;;;;;;23.69;71.82;100227.05;255477;1096;115118;-73
2021/07/15 19:52:29;;;;;;;7.88;7.03;;;;;;;23.60;72.62;100227.65;256525;1096;115984;-74
2021/07/15 19:57:32;;;;;;;9.57;7.80;;;;;;;23.50;73.01;100232.88;256133;1095;114639;-71
2021/07/15 20:02:35;;;;;;;10.60;9.50;;;;;;;23.40;73.76;100220.01;255855;1096;114773;-71
2021/07/15 20:07:37;;;;;;;15.90;10.38;;;;;;;23.43;74.31;100243.81;255539;1094;114880;-76
2021/07/15 20:12:40;;;;;;;14.70;8.28;;;;;;;23.38;74.86;100241.84;256265;1095;115210;-70
2021/07/15 20:17:44;;;;;;;10.20;8.45;;;;;;;23.39;74.63;100242.66;257354;1094;116130;-77
2021/07/15 20:22:47;;;;;;;12.00;8.63;;;;;;;23.37;75.09;100251.00;255735;1096;114807;-70
2021/07/15 20:27:50;;;;;;;14.13;7.80;;;;;;;23.30;75.88;100252.20;255626;1093;114805;-71
2021/07/15 20:32:52;;;;;;;13.08;8.80;;;;;;;23.13;75.86;100244.88;255876;1093;115122;-73
2021/07/15 20:37:54;;;;;;;13.28;8.73;;;;;;;23.07;76.42;100245.82;256758;1094;115025;-72
2021/07/15 20:42:58;;;;;;;12.38;8.13;;;;;;;23.02;76.51;100237.64;255732;1095;115317;-72
2021/07/15 20:48:00;;;;;;;12.65;8.45;;;;;;;22.98;77.27;100247.26;255561;1095;114861;-69
2021/07/15 20:53:02;;;;;;;16.85;9.15;;;;;;;23.03;76.61;100255.44;255907;1094;115091;-74
2021/07/15 20:58:05;;;;;;;13.43;8.80;;;;;;;22.87;77.37;100245.38;255838;1096;114823;-71
2021/07/15 21:03:07;;;;;;;10.68;8.90;;;;;;;22.83;77.29;100246.91;255731;1096;115108;-71
2021/07/15 21:08:12;;;;;;;13.88;9.50;;;;;;;22.79;77.59;100245.74;255714;1096;114814;-72
2021/07/15 21:13:15;;;;;;;11.48;8.98;;;;;;;22.70;77.93;100240.72;255862;1095;114955;-74
2021/07/15 21:18:17;;;;;;;10.25;8.73;;;;;;;22.72;77.39;100248.55;258163;1095;114767;-72
2021/07/15 21:23:20;;;;;;;10.18;8.78;;;;;;;22.73;77.13;100256.39;256729;1096;114991;-73
2021/07/15 21:28:22;;;;;;;12.23;9.10;;;;;;;22.59;77.36;100255.02;256598;1096;115139;-71
2021/07/15 21:33:26;;;;;;;11.35;9.15;;;;;;;22.50;77.95;100256.41;256455;1096;115374;-77
2021/07/15 21:38:28;;;;;;;11.20;8.73;;;;;;;22.46;78.25;100261.45;256936;1096;115480;-71
2021/07/15 21:43:30;;;;;;;13.23;8.75;;;;;;;22.49;78.22;100268.25;256649;1095;114830;-75
2021/07/15 21:48:33;;;;;;;11.08;9.90;;;;;;;22.55;77.81;100247.65;256368;1095;114754;-73
2021/07/15 21:53:35;;;;;;;10.28;9.28;;;;;;;22.60;77.59;100259.34;257378;1095;115010;-72
2021/07/15 21:58:37;;;;;;;10.58;9.05;;;;;;;22.47;77.64;100251.52;256170;1096;114951;-70
2021/07/15 22:03:40;;;;;;;10.78;9.68;;;;;;;22.64;77.13;100252.43;256204;1096;114818;-73
2021/07/15 22:08:46;;;;;;;11.35;9.43;;;;;;;22.52;78.02;100248.93;256715;1094;115428;-71
2021/07/15 22:13:49;;;;;;;10.35;9.28;;;;;;;22.33;78.79;100250.10;256657;1095;114862;-72
2021/07/15 22:18:51;;;;;;;11.60;8.93;;;;;;;22.34;78.93;100246.34;255927;1096;114779;-73
2021/07/15 22:23:54;;;;;;;10.10;8.98;;;;;;;22.36;78.47;100245.07;256115;1095;115111;-73
2021/07/15 22:28:56;;;;;;;12.73;9.95;;;;;;;22.32;78.77;100241.20;256195;1095;114707;-76
2021/07/15 22:33:58;;;;;;;11.23;9.43;;;;;;;22.26;78.78;100252.90;256790;1095;114881;-71
2021/07/15 22:39:01;;;;;;;12.30;9.63;;;;;;;22.23;79.12;100240.74;256236;1094;115267;-76
2021/07/15 22:44:04;;;;;;;12.73;11.40;;;;;;;22.32;78.27;100226.93;256083;1095;115318;-72
2021/07/15 22:49:06;;;;;;;12.33;10.70;;;;;;;22.32;78.33;100227.75;256505;1095;115171;-76
2021/07/15 22:54:09;;;;;;;10.63;9.53;;;;;;;22.31;77.48;100234.16;256742;1095;114969;-70
2021/07/15 22:59:13;;;;;;;12.10;10.03;;;;;;;22.25;77.63;100238.63;256481;1095;114935;-74
2021/07/15 23:04:15;;;;;;;10.18;9.18;;;;;;;22.27;77.32;100241.07;256112;1096;115150;-71